sensor_id;sensor_type;location;lat;lon;timestamp;P1;durP1;ratioP1;P2;durP2;ratioP2
26536;SDS011;14204;51.262;5.488;2022-07-30T00:01:15;9.35;;;5.03;;
26536;SDS011;14204;51.262;5.488;2022-07-30T00:03:40;9.75;;;5.13;;
26536;SDS011;14204;51.262;5.488;2022-07-30T00:06:06;8.27;;;4.72;;
26536;SDS011;14204;51.262;5.488;2022-07-30T00:08:32;8.20;;;4.50;;
26536;SDS011;14204;51.262;5.488;2022-07-30T00:10:57;9.80;;;4.72;;
26536;SDS011;14204;51.262;5.488;2022-07-30T00:13:23;8.85;;;4.65;;
26536;SDS011;14204;51.262;5.488;2022-07-30T00:15:49;8.68;;;4.93;;
26536;SDS011;14204;51.262;5.488;2022-07-30T00:18:14;10.88;;;4.95;;
26536;SDS011;14204;51.262;5.488;2022-07-30T00:20:40;9.52;;;4.97;;
26536;SDS011;14204;51.262;5.488;2022-07-30T00:23:06;8.00;;;4.88;;
26536;SDS011;14204;51.262;5.488;2022-07-30T00:25:31;10.88;;;5.32;;
26536;SDS011;14204;51.262;5.488;2022-07-30T00:27:57;6.78;;;5.00;;
26536;SDS011;14204;51.262;5.488;2022-07-30T00:30:23;9.27;;;5.18;;
26536;SDS011;14204;51.262;5.488;2022-07-30T00:32:49;10.25;;;5.35;;
26536;SDS011;14204;51.262;5.488;2022-07-30T00:35:15;9.25;;;5.40;;
26536;SDS011;14204;51.262;5.488;2022-07-30T00:37:41;10.18;;;5.35;;
26536;SDS011;14204;51.262;5.488;2022-07-30T00:40:07;13.48;;;5.68;;
26536;SDS011;14204;51.262;5.488;2022-07-30T00:42:41;7.28;;;5.13;;
26536;SDS011;14204;51.262;5.488;2022-07-30T00:45:12;9.23;;;5.60;;
26536;SDS011;14204;51.262;5.488;2022-07-30T00:47:38;10.88;;;5.55;;
26536;SDS011;14204;51.262;5.488;2022-07-30T00:50:05;12.63;;;6.32;;
26536;SDS011;14204;51.262;5.488;2022-07-30T00:52:33;9.32;;;6.20;;
26536;SDS011;14204;51.262;5.488;2022-07-30T00:55:00;9.80;;;5.68;;
26536;SDS011;14204;51.262;5.488;2022-07-30T00:57:26;9.18;;;5.88;;
26536;SDS011;14204;51.262;5.488;2022-07-30T00:59:52;9.00;;;5.95;;
26536;SDS011;14204;51.262;5.488;2022-07-30T01:02:18;7.82;;;5.82;;
26536;SDS011;14204;51.262;5.488;2022-07-30T01:04:44;9.95;;;6.68;;
26536;SDS011;14204;51.262;5.488;2022-07-30T01:07:10;9.85;;;6.55;;
26536;SDS011;14204;51.262;5.488;2022-07-30T01:09:36;9.77;;;6.50;;
26536;SDS011;14204;51.262;5.488;2022-07-30T01:12:02;8.70;;;6.78;;
26536;SDS011;14204;51.262;5.488;2022-07-30T01:14:30;10.50;;;7.20;;
26536;SDS011;14204;51.262;5.488;2022-07-30T01:16:58;10.63;;;6.65;;
26536;SDS011;14204;51.262;5.488;2022-07-30T01:19:24;13.23;;;7.15;;
26536;SDS011;14204;51.262;5.488;2022-07-30T01:22:15;10.90;;;7.28;;
26536;SDS011;14204;51.262;5.488;2022-07-30T01:30:17;9.52;;;7.80;;
26536;SDS011;14204;51.262;5.488;2022-07-30T01:32:45;10.15;;;8.02;;
26536;SDS011;14204;51.262;5.488;2022-07-30T01:35:13;10.98;;;8.15;;
26536;SDS011;14204;51.262;5.488;2022-07-30T01:37:40;17.27;;;8.75;;
26536;SDS011;14204;51.262;5.488;2022-07-30T01:40:08;9.77;;;8.77;;
26536;SDS011;14204;51.262;5.488;2022-07-30T01:42:34;10.88;;;9.25;;
26536;SDS011;14204;51.262;5.488;2022-07-30T01:45:01;12.35;;;9.38;;
26536;SDS011;14204;51.262;5.488;2022-07-30T01:47:28;12.30;;;9.23;;
26536;SDS011;14204;51.262;5.488;2022-07-30T01:49:56;16.05;;;9.82;;
26536;SDS011;14204;51.262;5.488;2022-07-30T01:52:23;11.23;;;9.27;;
26536;SDS011;14204;51.262;5.488;2022-07-30T01:54:54;11.32;;;10.07;;
26536;SDS011;14204;51.262;5.488;2022-07-30T01:57:22;13.82;;;9.82;;
26536;SDS011;14204;51.262;5.488;2022-07-30T01:59:50;13.43;;;9.65;;
26536;SDS011;14204;51.262;5.488;2022-07-30T02:02:19;13.52;;;11.63;;
26536;SDS011;14204;51.262;5.488;2022-07-30T02:04:45;11.63;;;9.80;;
26536;SDS011;14204;51.262;5.488;2022-07-30T02:07:19;14.52;;;10.63;;
26536;SDS011;14204;51.262;5.488;2022-07-30T02:09:57;15.90;;;10.35;;
26536;SDS011;14204;51.262;5.488;2022-07-30T02:12:26;11.93;;;10.75;;
26536;SDS011;14204;51.262;5.488;2022-07-30T02:14:59;13.48;;;9.77;;
26536;SDS011;14204;51.262;5.488;2022-07-30T02:17:37;11.45;;;10.25;;
26536;SDS011;14204;51.262;5.488;2022-07-30T02:20:06;15.65;;;10.27;;
26536;SDS011;14204;51.262;5.488;2022-07-30T02:22:35;21.13;;;12.10;;
26536;SDS011;14204;51.262;5.488;2022-07-30T02:25:04;15.13;;;12.68;;
26536;SDS011;14204;51.262;5.488;2022-07-30T02:27:32;15.23;;;10.20;;
26536;SDS011;14204;51.262;5.488;2022-07-30T02:30:00;22.02;;;12.68;;
26536;SDS011;14204;51.262;5.488;2022-07-30T02:32:28;21.83;;;11.60;;
26536;SDS011;14204;51.262;5.488;2022-07-30T02:34:59;18.92;;;12.80;;
26536;SDS011;14204;51.262;5.488;2022-07-30T02:37:29;25.50;;;11.95;;
26536;SDS011;14204;51.262;5.488;2022-07-30T02:39:56;16.98;;;12.45;;
26536;SDS011;14204;51.262;5.488;2022-07-30T02:42:23;17.90;;;12.73;;
26536;SDS011;14204;51.262;5.488;2022-07-30T02:44:51;18.77;;;14.13;;
26536;SDS011;14204;51.262;5.488;2022-07-30T02:47:18;14.10;;;11.82;;
26536;SDS011;14204;51.262;5.488;2022-07-30T02:49:47;15.38;;;12.25;;
26536;SDS011;14204;51.262;5.488;2022-07-30T02:52:14;17.80;;;12.43;;
26536;SDS011;14204;51.262;5.488;2022-07-30T02:54:42;17.13;;;12.73;;
26536;SDS011;14204;51.262;5.488;2022-07-30T02:57:10;15.57;;;12.57;;
26536;SDS011;14204;51.262;5.488;2022-07-30T02:59:37;16.58;;;12.88;;
26536;SDS011;14204;51.262;5.488;2022-07-30T03:02:05;18.45;;;12.55;;
26536;SDS011;14204;51.262;5.488;2022-07-30T03:04:33;17.15;;;12.05;;
26536;SDS011;14204;51.262;5.488;2022-07-30T03:07:00;18.23;;;14.77;;
26536;SDS011;14204;51.262;5.488;2022-07-30T03:09:26;19.50;;;13.65;;
26536;SDS011;14204;51.262;5.488;2022-07-30T03:11:53;19.08;;;12.68;;
26536;SDS011;14204;51.262;5.488;2022-07-30T03:14:20;20.08;;;16.00;;
26536;SDS011;14204;51.262;5.488;2022-07-30T03:16:47;19.38;;;15.52;;
26536;SDS011;14204;51.262;5.488;2022-07-30T03:19:19;24.20;;;15.82;;
26536;SDS011;14204;51.262;5.488;2022-07-30T03:21:47;21.45;;;16.48;;
26536;SDS011;14204;51.262;5.488;2022-07-30T03:24:14;21.55;;;16.30;;
26536;SDS011;14204;51.262;5.488;2022-07-30T03:26:42;26.38;;;17.95;;
26536;SDS011;14204;51.262;5.488;2022-07-30T03:29:10;28.00;;;19.63;;
26536;SDS011;14204;51.262;5.488;2022-07-30T03:31:38;20.50;;;16.50;;
26536;SDS011;14204;51.262;5.488;2022-07-30T03:34:07;16.95;;;14.48;;
26536;SDS011;14204;51.262;5.488;2022-07-30T03:36:34;20.13;;;15.43;;
26536;SDS011;14204;51.262;5.488;2022-07-30T03:39:00;26.75;;;18.73;;
26536;SDS011;14204;51.262;5.488;2022-07-30T03:41:28;22.58;;;18.13;;
26536;SDS011;14204;51.262;5.488;2022-07-30T03:43:55;23.05;;;17.08;;
26536;SDS011;14204;51.262;5.488;2022-07-30T03:46:21;23.20;;;18.30;;
26536;SDS011;14204;51.262;5.488;2022-07-30T03:48:47;22.00;;;16.40;;
26536;SDS011;14204;51.262;5.488;2022-07-30T03:51:13;24.42;;;18.67;;
26536;SDS011;14204;51.262;5.488;2022-07-30T03:53:41;25.65;;;17.75;;
26536;SDS011;14204;51.262;5.488;2022-07-30T03:56:07;26.83;;;20.02;;
26536;SDS011;14204;51.262;5.488;2022-07-30T03:58:33;21.67;;;16.02;;
26536;SDS011;14204;51.262;5.488;2022-07-30T04:01:02;21.23;;;16.80;;
26536;SDS011;14204;51.262;5.488;2022-07-30T04:03:28;19.30;;;14.90;;
26536;SDS011;14204;51.262;5.488;2022-07-30T04:05:55;20.02;;;16.08;;
26536;SDS011;14204;51.262;5.488;2022-07-30T04:08:21;25.65;;;18.33;;
26536;SDS011;14204;51.262;5.488;2022-07-30T04:10:47;24.67;;;18.67;;
26536;SDS011;14204;51.262;5.488;2022-07-30T04:13:14;19.73;;;17.70;;
26536;SDS011;14204;51.262;5.488;2022-07-30T04:18:39;26.60;;;19.13;;
26536;SDS011;14204;51.262;5.488;2022-07-30T04:21:09;26.90;;;19.98;;
26536;SDS011;14204;51.262;5.488;2022-07-30T04:23:39;22.42;;;19.48;;
26536;SDS011;14204;51.262;5.488;2022-07-30T04:26:06;27.05;;;21.17;;
26536;SDS011;14204;51.262;5.488;2022-07-30T04:28:33;31.25;;;22.30;;
26536;SDS011;14204;51.262;5.488;2022-07-30T04:30:59;29.73;;;22.77;;
26536;SDS011;14204;51.262;5.488;2022-07-30T04:33:25;34.45;;;21.65;;
26536;SDS011;14204;51.262;5.488;2022-07-30T04:35:50;28.05;;;21.92;;
26536;SDS011;14204;51.262;5.488;2022-07-30T04:38:16;28.63;;;22.40;;
26536;SDS011;14204;51.262;5.488;2022-07-30T04:40:42;27.73;;;20.70;;
26536;SDS011;14204;51.262;5.488;2022-07-30T04:43:08;25.38;;;20.75;;
26536;SDS011;14204;51.262;5.488;2022-07-30T04:45:33;23.90;;;21.05;;
26536;SDS011;14204;51.262;5.488;2022-07-30T04:47:59;28.73;;;21.90;;
26536;SDS011;14204;51.262;5.488;2022-07-30T04:50:25;31.77;;;23.60;;
26536;SDS011;14204;51.262;5.488;2022-07-30T04:52:53;37.05;;;25.00;;
26536;SDS011;14204;51.262;5.488;2022-07-30T04:55:20;35.72;;;26.67;;
26536;SDS011;14204;51.262;5.488;2022-07-30T04:57:48;35.20;;;26.95;;
26536;SDS011;14204;51.262;5.488;2022-07-30T05:00:15;32.42;;;25.48;;
26536;SDS011;14204;51.262;5.488;2022-07-30T05:02:41;35.92;;;25.65;;
26536;SDS011;14204;51.262;5.488;2022-07-30T05:05:09;33.67;;;25.83;;
26536;SDS011;14204;51.262;5.488;2022-07-30T05:07:37;32.45;;;26.23;;
26536;SDS011;14204;51.262;5.488;2022-07-30T05:10:04;36.40;;;27.55;;
26536;SDS011;14204;51.262;5.488;2022-07-30T05:12:33;30.40;;;24.83;;
26536;SDS011;14204;51.262;5.488;2022-07-30T05:15:04;31.75;;;24.58;;
26536;SDS011;14204;51.262;5.488;2022-07-30T05:17:31;37.80;;;25.58;;
26536;SDS011;14204;51.262;5.488;2022-07-30T05:19:57;32.50;;;26.85;;
26536;SDS011;14204;51.262;5.488;2022-07-30T05:22:23;35.45;;;26.15;;
26536;SDS011;14204;51.262;5.488;2022-07-30T05:24:51;37.40;;;25.73;;
26536;SDS011;14204;51.262;5.488;2022-07-30T05:27:17;34.67;;;26.63;;
26536;SDS011;14204;51.262;5.488;2022-07-30T05:29:44;35.15;;;26.92;;
26536;SDS011;14204;51.262;5.488;2022-07-30T05:32:10;36.30;;;26.08;;
26536;SDS011;14204;51.262;5.488;2022-07-30T05:34:36;35.85;;;28.75;;
26536;SDS011;14204;51.262;5.488;2022-07-30T05:37:02;32.88;;;27.52;;
26536;SDS011;14204;51.262;5.488;2022-07-30T05:39:28;30.60;;;26.13;;
26536;SDS011;14204;51.262;5.488;2022-07-30T05:41:53;34.40;;;27.23;;
26536;SDS011;14204;51.262;5.488;2022-07-30T05:44:19;32.85;;;27.48;;
26536;SDS011;14204;51.262;5.488;2022-07-30T05:46:45;37.28;;;27.40;;
26536;SDS011;14204;51.262;5.488;2022-07-30T05:49:11;37.00;;;26.25;;
26536;SDS011;14204;51.262;5.488;2022-07-30T05:51:37;30.35;;;25.13;;
26536;SDS011;14204;51.262;5.488;2022-07-30T05:54:03;38.20;;;28.58;;
26536;SDS011;14204;51.262;5.488;2022-07-30T05:56:29;35.63;;;27.48;;
26536;SDS011;14204;51.262;5.488;2022-07-30T05:58:54;34.85;;;26.23;;
26536;SDS011;14204;51.262;5.488;2022-07-30T06:01:20;37.20;;;28.95;;
26536;SDS011;14204;51.262;5.488;2022-07-30T06:03:45;39.05;;;26.27;;
26536;SDS011;14204;51.262;5.488;2022-07-30T06:06:11;36.08;;;27.27;;
26536;SDS011;14204;51.262;5.488;2022-07-30T06:08:37;35.65;;;25.65;;
26536;SDS011;14204;51.262;5.488;2022-07-30T06:11:02;32.30;;;27.85;;
26536;SDS011;14204;51.262;5.488;2022-07-30T06:13:28;35.80;;;27.67;;
26536;SDS011;14204;51.262;5.488;2022-07-30T06:15:54;37.15;;;26.25;;
26536;SDS011;14204;51.262;5.488;2022-07-30T06:18:20;35.67;;;24.77;;
26536;SDS011;14204;51.262;5.488;2022-07-30T06:20:45;34.90;;;25.80;;
26536;SDS011;14204;51.262;5.488;2022-07-30T06:23:13;35.05;;;26.23;;
26536;SDS011;14204;51.262;5.488;2022-07-30T06:25:39;28.27;;;25.25;;
26536;SDS011;14204;51.262;5.488;2022-07-30T06:28:04;31.75;;;24.70;;
26536;SDS011;14204;51.262;5.488;2022-07-30T06:30:30;34.03;;;23.85;;
26536;SDS011;14204;51.262;5.488;2022-07-30T06:32:56;36.58;;;25.98;;
26536;SDS011;14204;51.262;5.488;2022-07-30T06:35:21;28.00;;;24.58;;
26536;SDS011;14204;51.262;5.488;2022-07-30T06:37:47;30.70;;;21.42;;
26536;SDS011;14204;51.262;5.488;2022-07-30T06:40:12;34.15;;;24.02;;
26536;SDS011;14204;51.262;5.488;2022-07-30T06:42:38;26.73;;;21.67;;
26536;SDS011;14204;51.262;5.488;2022-07-30T06:45:04;29.13;;;20.55;;
26536;SDS011;14204;51.262;5.488;2022-07-30T06:47:30;29.27;;;20.67;;
26536;SDS011;14204;51.262;5.488;2022-07-30T06:49:59;28.77;;;21.15;;
26536;SDS011;14204;51.262;5.488;2022-07-30T06:52:25;27.55;;;20.00;;
26536;SDS011;14204;51.262;5.488;2022-07-30T06:54:51;29.13;;;19.73;;
26536;SDS011;14204;51.262;5.488;2022-07-30T06:57:17;28.33;;;18.23;;
26536;SDS011;14204;51.262;5.488;2022-07-30T06:59:42;22.45;;;17.80;;
26536;SDS011;14204;51.262;5.488;2022-07-30T07:02:08;19.67;;;15.68;;
26536;SDS011;14204;51.262;5.488;2022-07-30T07:04:34;22.85;;;16.65;;
26536;SDS011;14204;51.262;5.488;2022-07-30T07:07:00;19.48;;;14.68;;
26536;SDS011;14204;51.262;5.488;2022-07-30T07:09:26;21.63;;;15.27;;
26536;SDS011;14204;51.262;5.488;2022-07-30T07:11:51;20.95;;;16.60;;
26536;SDS011;14204;51.262;5.488;2022-07-30T07:14:17;24.02;;;16.70;;
26536;SDS011;14204;51.262;5.488;2022-07-30T07:16:43;19.48;;;15.90;;
26536;SDS011;14204;51.262;5.488;2022-07-30T07:19:08;23.80;;;17.27;;
26536;SDS011;14204;51.262;5.488;2022-07-30T07:21:34;23.70;;;17.42;;
26536;SDS011;14204;51.262;5.488;2022-07-30T07:23:59;25.00;;;17.63;;
26536;SDS011;14204;51.262;5.488;2022-07-30T07:26:27;22.55;;;17.67;;
26536;SDS011;14204;51.262;5.488;2022-07-30T07:28:53;23.50;;;17.40;;
26536;SDS011;14204;51.262;5.488;2022-07-30T07:31:19;19.02;;;14.85;;
26536;SDS011;14204;51.262;5.488;2022-07-30T07:33:45;16.77;;;13.98;;
26536;SDS011;14204;51.262;5.488;2022-07-30T07:36:12;18.02;;;14.38;;
26536;SDS011;14204;51.262;5.488;2022-07-30T07:38:38;17.13;;;13.95;;
26536;SDS011;14204;51.262;5.488;2022-07-30T07:41:03;19.92;;;13.70;;
26536;SDS011;14204;51.262;5.488;2022-07-30T07:43:29;18.05;;;11.93;;
26536;SDS011;14204;51.262;5.488;2022-07-30T07:45:55;14.75;;;11.20;;
26536;SDS011;14204;51.262;5.488;2022-07-30T07:48:21;22.05;;;11.57;;
26536;SDS011;14204;51.262;5.488;2022-07-30T07:50:47;12.63;;;10.48;;
26536;SDS011;14204;51.262;5.488;2022-07-30T07:53:12;11.55;;;10.18;;
26536;SDS011;14204;51.262;5.488;2022-07-30T07:55:38;18.73;;;11.00;;
26536;SDS011;14204;51.262;5.488;2022-07-30T07:58:04;15.80;;;10.88;;
26536;SDS011;14204;51.262;5.488;2022-07-30T08:00:30;8.05;;;6.10;;
26536;SDS011;14204;51.262;5.488;2022-07-30T08:02:55;14.05;;;5.13;;
26536;SDS011;14204;51.262;5.488;2022-07-30T08:05:21;7.80;;;4.97;;
26536;SDS011;14204;51.262;5.488;2022-07-30T08:07:47;12.63;;;6.18;;
26536;SDS011;14204;51.262;5.488;2022-07-30T08:10:13;7.15;;;5.50;;
26536;SDS011;14204;51.262;5.488;2022-07-30T08:12:40;8.75;;;5.40;;
26536;SDS011;14204;51.262;5.488;2022-07-30T08:15:06;7.82;;;5.55;;
26536;SDS011;14204;51.262;5.488;2022-07-30T08:17:38;12.77;;;6.97;;
26536;SDS011;14204;51.262;5.488;2022-07-30T08:20:05;11.40;;;6.72;;
26536;SDS011;14204;51.262;5.488;2022-07-30T08:22:31;17.40;;;6.60;;
26536;SDS011;14204;51.262;5.488;2022-07-30T08:24:56;8.52;;;6.18;;
26536;SDS011;14204;51.262;5.488;2022-07-30T08:27:22;9.63;;;5.97;;
26536;SDS011;14204;51.262;5.488;2022-07-30T08:29:48;7.93;;;5.20;;
26536;SDS011;14204;51.262;5.488;2022-07-30T08:32:13;6.95;;;5.20;;
26536;SDS011;14204;51.262;5.488;2022-07-30T08:34:39;9.05;;;4.93;;
26536;SDS011;14204;51.262;5.488;2022-07-30T08:37:05;8.43;;;5.30;;
26536;SDS011;14204;51.262;5.488;2022-07-30T08:39:30;8.38;;;5.18;;
26536;SDS011;14204;51.262;5.488;2022-07-30T08:41:56;6.28;;;5.00;;
26536;SDS011;14204;51.262;5.488;2022-07-30T08:44:22;7.07;;;4.82;;
26536;SDS011;14204;51.262;5.488;2022-07-30T08:46:50;8.02;;;5.50;;
26536;SDS011;14204;51.262;5.488;2022-07-30T08:49:20;6.65;;;4.90;;
26536;SDS011;14204;51.262;5.488;2022-07-30T08:51:48;6.57;;;4.80;;
26536;SDS011;14204;51.262;5.488;2022-07-30T08:54:14;11.25;;;5.28;;
26536;SDS011;14204;51.262;5.488;2022-07-30T08:56:41;10.50;;;5.07;;
26536;SDS011;14204;51.262;5.488;2022-07-30T08:59:08;5.07;;;4.22;;
26536;SDS011;14204;51.262;5.488;2022-07-30T09:01:34;9.60;;;4.70;;
26536;SDS011;14204;51.262;5.488;2022-07-30T09:04:00;7.32;;;4.93;;
26536;SDS011;14204;51.262;5.488;2022-07-30T09:06:25;10.43;;;4.72;;
26536;SDS011;14204;51.262;5.488;2022-07-30T09:08:51;8.68;;;5.63;;
26536;SDS011;14204;51.262;5.488;2022-07-30T09:11:17;10.10;;;5.15;;
26536;SDS011;14204;51.262;5.488;2022-07-30T09:13:43;9.52;;;4.75;;
26536;SDS011;14204;51.262;5.488;2022-07-30T09:16:22;5.88;;;4.85;;
26536;SDS011;14204;51.262;5.488;2022-07-30T09:18:49;7.53;;;4.90;;
26536;SDS011;14204;51.262;5.488;2022-07-30T09:21:18;8.00;;;4.68;;
26536;SDS011;14204;51.262;5.488;2022-07-30T09:24:07;6.28;;;4.80;;
26536;SDS011;14204;51.262;5.488;2022-07-30T09:29:27;8.52;;;4.45;;
26536;SDS011;14204;51.262;5.488;2022-07-30T09:32:03;6.38;;;5.15;;
26536;SDS011;14204;51.262;5.488;2022-07-30T09:37:01;5.45;;;4.95;;
26536;SDS011;14204;51.262;5.488;2022-07-30T09:39:42;10.25;;;5.03;;
26536;SDS011;14204;51.262;5.488;2022-07-30T09:42:18;7.43;;;4.75;;
26536;SDS011;14204;51.262;5.488;2022-07-30T09:44:45;6.35;;;4.20;;
26536;SDS011;14204;51.262;5.488;2022-07-30T09:47:30;4.95;;;4.45;;
26536;SDS011;14204;51.262;5.488;2022-07-30T09:50:07;6.68;;;5.07;;
26536;SDS011;14204;51.262;5.488;2022-07-30T09:52:35;9.60;;;5.05;;
26536;SDS011;14204;51.262;5.488;2022-07-30T09:55:02;8.52;;;5.35;;
26536;SDS011;14204;51.262;5.488;2022-07-30T09:57:29;7.60;;;5.15;;
26536;SDS011;14204;51.262;5.488;2022-07-30T09:59:55;6.95;;;5.30;;
26536;SDS011;14204;51.262;5.488;2022-07-30T10:02:27;6.72;;;5.97;;
26536;SDS011;14204;51.262;5.488;2022-07-30T10:05:12;8.05;;;5.38;;
26536;SDS011;14204;51.262;5.488;2022-07-30T10:07:39;10.63;;;5.45;;
26536;SDS011;14204;51.262;5.488;2022-07-30T10:10:16;7.80;;;5.50;;
26536;SDS011;14204;51.262;5.488;2022-07-30T10:12:44;8.35;;;6.18;;
26536;SDS011;14204;51.262;5.488;2022-07-30T10:15:12;7.88;;;5.03;;
26536;SDS011;14204;51.262;5.488;2022-07-30T10:17:42;9.77;;;5.97;;
26536;SDS011;14204;51.262;5.488;2022-07-30T10:20:09;9.18;;;5.35;;
26536;SDS011;14204;51.262;5.488;2022-07-30T10:22:36;6.63;;;4.43;;
26536;SDS011;14204;51.262;5.488;2022-07-30T10:25:02;8.60;;;5.13;;
26536;SDS011;14204;51.262;5.488;2022-07-30T10:27:28;6.57;;;3.63;;
26536;SDS011;14204;51.262;5.488;2022-07-30T10:29:56;7.68;;;4.80;;
26536;SDS011;14204;51.262;5.488;2022-07-30T10:32:25;8.48;;;5.25;;
26536;SDS011;14204;51.262;5.488;2022-07-30T10:34:51;8.52;;;5.90;;
26536;SDS011;14204;51.262;5.488;2022-07-30T10:37:17;9.52;;;6.00;;
26536;SDS011;14204;51.262;5.488;2022-07-30T10:39:51;8.55;;;5.43;;
26536;SDS011;14204;51.262;5.488;2022-07-30T10:45:02;8.45;;;6.30;;
26536;SDS011;14204;51.262;5.488;2022-07-30T10:47:47;4.75;;;3.40;;
26536;SDS011;14204;51.262;5.488;2022-07-30T10:50:15;3.38;;;3.08;;
26536;SDS011;14204;51.262;5.488;2022-07-30T10:55:19;6.30;;;4.13;;
26536;SDS011;14204;51.262;5.488;2022-07-30T11:00:33;6.05;;;3.30;;
26536;SDS011;14204;51.262;5.488;2022-07-30T11:03:29;5.63;;;3.45;;
26536;SDS011;14204;51.262;5.488;2022-07-30T11:08:53;6.10;;;4.07;;
26536;SDS011;14204;51.262;5.488;2022-07-30T11:13:54;7.03;;;4.72;;
26536;SDS011;14204;51.262;5.488;2022-07-30T11:21:28;6.15;;;4.03;;
26536;SDS011;14204;51.262;5.488;2022-07-30T11:23:53;5.07;;;3.30;;
26536;SDS011;14204;51.262;5.488;2022-07-30T11:29:03;6.13;;;3.72;;
26536;SDS011;14204;51.262;5.488;2022-07-30T11:31:31;5.93;;;3.25;;
26536;SDS011;14204;51.262;5.488;2022-07-30T11:42:36;3.75;;;2.47;;
26536;SDS011;14204;51.262;5.488;2022-07-30T11:47:45;6.68;;;2.50;;
26536;SDS011;14204;51.262;5.488;2022-07-30T11:50:18;4.68;;;2.92;;
26536;SDS011;14204;51.262;5.488;2022-07-30T11:52:49;6.22;;;2.95;;
26536;SDS011;14204;51.262;5.488;2022-07-30T11:55:30;5.68;;;2.95;;
26536;SDS011;14204;51.262;5.488;2022-07-30T11:58:00;5.95;;;2.40;;
26536;SDS011;14204;51.262;5.488;2022-07-30T12:00:36;8.40;;;3.03;;
26536;SDS011;14204;51.262;5.488;2022-07-30T12:03:06;6.15;;;2.78;;
26536;SDS011;14204;51.262;5.488;2022-07-30T12:05:39;3.10;;;2.55;;
26536;SDS011;14204;51.262;5.488;2022-07-30T12:08:06;3.97;;;2.90;;
26536;SDS011;14204;51.262;5.488;2022-07-30T12:10:32;5.68;;;3.30;;
26536;SDS011;14204;51.262;5.488;2022-07-30T12:13:07;5.60;;;3.05;;
26536;SDS011;14204;51.262;5.488;2022-07-30T12:15:33;5.60;;;2.47;;
26536;SDS011;14204;51.262;5.488;2022-07-30T12:18:01;4.03;;;3.13;;
26536;SDS011;14204;51.262;5.488;2022-07-30T12:20:27;5.10;;;2.75;;
26536;SDS011;14204;51.262;5.488;2022-07-30T12:22:54;5.38;;;2.75;;
26536;SDS011;14204;51.262;5.488;2022-07-30T12:25:20;3.05;;;2.75;;
26536;SDS011;14204;51.262;5.488;2022-07-30T12:27:47;5.47;;;2.67;;
26536;SDS011;14204;51.262;5.488;2022-07-30T12:30:14;4.65;;;2.42;;
26536;SDS011;14204;51.262;5.488;2022-07-30T12:32:41;9.20;;;3.42;;
26536;SDS011;14204;51.262;5.488;2022-07-30T12:35:08;4.03;;;2.97;;
26536;SDS011;14204;51.262;5.488;2022-07-30T12:37:34;4.50;;;3.00;;
26536;SDS011;14204;51.262;5.488;2022-07-30T12:42:36;5.13;;;3.30;;
26536;SDS011;14204;51.262;5.488;2022-07-30T12:45:03;5.95;;;2.80;;
26536;SDS011;14204;51.262;5.488;2022-07-30T12:47:30;5.60;;;3.05;;
26536;SDS011;14204;51.262;5.488;2022-07-30T12:49:59;9.07;;;3.85;;
26536;SDS011;14204;51.262;5.488;2022-07-30T12:52:27;8.10;;;2.95;;
26536;SDS011;14204;51.262;5.488;2022-07-30T12:55:06;8.75;;;3.17;;
26536;SDS011;14204;51.262;5.488;2022-07-30T12:57:53;5.30;;;2.92;;
26536;SDS011;14204;51.262;5.488;2022-07-30T13:00:32;6.15;;;3.17;;
26536;SDS011;14204;51.262;5.488;2022-07-30T13:03:20;7.07;;;3.20;;
26536;SDS011;14204;51.262;5.488;2022-07-30T13:05:50;5.95;;;3.28;;
26536;SDS011;14204;51.262;5.488;2022-07-30T13:08:17;6.03;;;3.20;;
26536;SDS011;14204;51.262;5.488;2022-07-30T13:10:53;6.82;;;3.13;;
26536;SDS011;14204;51.262;5.488;2022-07-30T13:13:26;5.30;;;2.40;;
26536;SDS011;14204;51.262;5.488;2022-07-30T13:16:05;5.28;;;2.70;;
26536;SDS011;14204;51.262;5.488;2022-07-30T13:18:31;9.70;;;3.10;;
26536;SDS011;14204;51.262;5.488;2022-07-30T13:20:58;6.78;;;3.00;;
26536;SDS011;14204;51.262;5.488;2022-07-30T13:23:24;4.05;;;2.55;;
26536;SDS011;14204;51.262;5.488;2022-07-30T13:25:54;8.40;;;3.63;;
26536;SDS011;14204;51.262;5.488;2022-07-30T13:28:20;5.90;;;3.30;;
26536;SDS011;14204;51.262;5.488;2022-07-30T13:30:46;5.88;;;2.72;;
26536;SDS011;14204;51.262;5.488;2022-07-30T13:33:13;4.80;;;3.58;;
26536;SDS011;14204;51.262;5.488;2022-07-30T13:35:38;8.20;;;3.10;;
26536;SDS011;14204;51.262;5.488;2022-07-30T13:38:04;4.18;;;2.83;;
26536;SDS011;14204;51.262;5.488;2022-07-30T13:40:30;5.13;;;3.42;;
26536;SDS011;14204;51.262;5.488;2022-07-30T13:42:57;4.43;;;2.78;;
26536;SDS011;14204;51.262;5.488;2022-07-30T13:45:27;3.42;;;2.53;;
26536;SDS011;14204;51.262;5.488;2022-07-30T13:47:53;7.15;;;2.63;;
26536;SDS011;14204;51.262;5.488;2022-07-30T13:50:19;6.28;;;3.05;;
26536;SDS011;14204;51.262;5.488;2022-07-30T13:52:44;8.45;;;2.90;;
26536;SDS011;14204;51.262;5.488;2022-07-30T13:55:10;6.63;;;3.10;;
26536;SDS011;14204;51.262;5.488;2022-07-30T13:57:36;6.82;;;2.63;;
26536;SDS011;14204;51.262;5.488;2022-07-30T14:00:05;3.17;;;2.13;;
26536;SDS011;14204;51.262;5.488;2022-07-30T14:02:32;6.95;;;2.35;;
26536;SDS011;14204;51.262;5.488;2022-07-30T14:04:58;4.32;;;2.20;;
26536;SDS011;14204;51.262;5.488;2022-07-30T14:07:24;6.30;;;2.50;;
26536;SDS011;14204;51.262;5.488;2022-07-30T14:09:50;4.85;;;1.95;;
26536;SDS011;14204;51.262;5.488;2022-07-30T14:12:16;3.13;;;2.00;;
26536;SDS011;14204;51.262;5.488;2022-07-30T14:14:41;3.83;;;2.15;;
26536;SDS011;14204;51.262;5.488;2022-07-30T14:17:07;4.63;;;2.17;;
26536;SDS011;14204;51.262;5.488;2022-07-30T14:19:33;9.20;;;2.90;;
26536;SDS011;14204;51.262;5.488;2022-07-30T14:21:58;7.30;;;3.28;;
26536;SDS011;14204;51.262;5.488;2022-07-30T14:24:24;6.88;;;2.55;;
26536;SDS011;14204;51.262;5.488;2022-07-30T14:26:50;5.95;;;2.63;;
26536;SDS011;14204;51.262;5.488;2022-07-30T14:29:16;4.35;;;2.22;;
26536;SDS011;14204;51.262;5.488;2022-07-30T14:31:42;6.50;;;2.30;;
26536;SDS011;14204;51.262;5.488;2022-07-30T14:34:08;5.68;;;2.20;;
26536;SDS011;14204;51.262;5.488;2022-07-30T14:36:34;5.88;;;2.50;;
26536;SDS011;14204;51.262;5.488;2022-07-30T14:39:01;4.57;;;2.13;;
26536;SDS011;14204;51.262;5.488;2022-07-30T14:41:28;8.68;;;3.10;;
26536;SDS011;14204;51.262;5.488;2022-07-30T14:43:57;6.93;;;2.50;;
26536;SDS011;14204;51.262;5.488;2022-07-30T14:46:23;3.25;;;2.45;;
26536;SDS011;14204;51.262;5.488;2022-07-30T14:48:49;3.45;;;2.10;;
26536;SDS011;14204;51.262;5.488;2022-07-30T14:51:14;5.20;;;2.67;;
26536;SDS011;14204;51.262;5.488;2022-07-30T14:53:40;6.57;;;2.60;;
26536;SDS011;14204;51.262;5.488;2022-07-30T14:56:06;5.60;;;2.60;;
26536;SDS011;14204;51.262;5.488;2022-07-30T14:58:32;4.30;;;1.85;;
26536;SDS011;14204;51.262;5.488;2022-07-30T15:00:58;3.92;;;2.30;;
26536;SDS011;14204;51.262;5.488;2022-07-30T15:03:24;5.25;;;2.58;;
26536;SDS011;14204;51.262;5.488;2022-07-30T15:05:50;6.65;;;2.20;;
26536;SDS011;14204;51.262;5.488;2022-07-30T15:08:15;3.92;;;2.00;;
26536;SDS011;14204;51.262;5.488;2022-07-30T15:10:41;2.75;;;2.00;;
26536;SDS011;14204;51.262;5.488;2022-07-30T15:13:07;7.55;;;2.38;;
26536;SDS011;14204;51.262;5.488;2022-07-30T15:15:32;5.00;;;2.08;;
26536;SDS011;14204;51.262;5.488;2022-07-30T15:17:59;6.40;;;2.13;;
26536;SDS011;14204;51.262;5.488;2022-07-30T15:20:25;2.78;;;2.10;;
26536;SDS011;14204;51.262;5.488;2022-07-30T15:22:50;4.07;;;2.10;;
26536;SDS011;14204;51.262;5.488;2022-07-30T15:25:16;4.82;;;2.33;;
26536;SDS011;14204;51.262;5.488;2022-07-30T15:27:42;4.95;;;2.40;;